Metar Flugplatz Niederstetten

ETHN 261443Z 27021KT 9999 -SN BKN008 01/M01 Q1001 GRN BLU TEMPO AMB



Temperatur Niederstetten
1 Grad Celsius

QNH Niederstetten
1001
==============================================================

TAF Niederstetten:

TAF ETHN 291027Z 2911/3002 24010KT 9999 NSW FEW240 TEMPO 2911/2916 26012G22KT 9999 NSW SCT035 BKN240



Alle Angaben ohne Gewähr